Englevale, North Dakota
Current Conditions -  °F | °C
As of 10:35 AM on Friday 31 Oct 2014 (Local Time) from KGWR Reporting Station
Clear Clear  
Wind Chill: 20°   Ceiling: Unl
Heat Index: 27°   Visibility: 10mi
Dew Point: 21°   Wind: 6mph
Humidity: 80%   Direction: 90°E
Pressure: 30.61"   Gusts: NA
Location:  46.4564°N, 97.909°W
Report Text: KGWR 311535Z AUTO 09005KT 10SM CLR M03/M06 A3061 RMK A01 P000
Loading
Personal Weather Stations






























Interactive Weather Map
Tropical Storm Tracking
New forecast layout! Learn more

10-Day Weather Forecast

Advertisements
Track Severe Weather on mobile